Friday, October 20, 2017, 9:16 PM EDT
Back to Local

KLOM, Philadelphia, Wings Field Airport

Location: Blue Bell, PA, United States Lat: 40.138
Local Time: 9:16 PM EDT ( 1:16 GMT) Lon: -75.265
Time Zone: US/Eastern Elev: 301 ft

Show me the last for .
Show Decoded

2017-10-20 20:35 METAR KLOM 210035Z AUTO 00000KT 10SM CLR 10/06 A3021 RMK AO1 =
2017-10-20 20:15 METAR KLOM 210015Z AUTO 00000KT 10SM CLR 09/07 A3021 RMK AO1 =
2017-10-20 19:55 METAR KLOM 202355Z AUTO 00000KT 10SM CLR 11/06 A3020 RMK AO1 =
2017-10-20 19:35 METAR KLOM 202335Z AUTO 00000KT 10SM CLR 11/07 A3021 RMK AO1 =
2017-10-20 19:15 METAR KLOM 202315Z AUTO 00000KT 10SM CLR 11/06 A3020 RMK AO1 =
2017-10-20 18:55 METAR KLOM 202255Z AUTO 00000KT 10SM CLR 13/06 A3019 RMK AO1 =
2017-10-20 18:35 METAR KLOM 202235Z AUTO 00000KT 10SM CLR 15/05 A3018 RMK AO1 =
2017-10-20 18:15 METAR KLOM 202215Z AUTO 00000KT 10SM CLR 17/03 A3018 RMK AO1 =
2017-10-20 17:55 METAR KLOM 202155Z AUTO 30003KT 10SM CLR 18/03 A3018 RMK AO1 =
2017-10-20 17:35 METAR KLOM 202135Z AUTO 28003KT 10SM CLR 20/02 A3018 RMK AO1 =
2017-10-20 17:15 METAR KLOM 202115Z AUTO 29004KT 10SM CLR 21/02 A3017 RMK AO1 =
2017-10-20 16:55 METAR KLOM 202055Z AUTO 29004KT 10SM CLR 21/01 A3017 RMK AO1 =
2017-10-20 16:35 METAR KLOM 202035Z AUTO 30003KT 10SM CLR 21/01 A3017 RMK AO1 =
2017-10-20 16:15 METAR KLOM 202015Z AUTO 30006KT 10SM CLR 21/01 A3017 RMK AO1 =
2017-10-20 15:55 METAR KLOM 201955Z AUTO 29006KT 10SM CLR 22/01 A3017 RMK AO1 =
2017-10-20 15:35 METAR KLOM 201935Z AUTO 30004KT 10SM CLR 22/02 A3017 RMK AO1 =
2017-10-20 15:15 METAR KLOM 201915Z AUTO 31003KT 10SM CLR 22/03 A3017 RMK AO1 =
2017-10-20 14:55 METAR KLOM 201855Z AUTO 30003KT 10SM CLR 21/02 A3017 RMK AO1 =
2017-10-20 14:35 METAR KLOM 201835Z AUTO 30005KT 10SM CLR 22/01 A3017 RMK AO1 =
2017-10-20 14:15 METAR KLOM 201815Z AUTO 36006KT 10SM CLR 22/02 A3018 RMK AO1 =
2017-10-20 13:55 METAR KLOM 201755Z AUTO 29007KT 10SM CLR 22/03 A3019 RMK AO1 =
2017-10-20 13:35 METAR KLOM 201735Z AUTO 30006KT 10SM CLR 21/02 A3019 RMK AO1 =
2017-10-20 13:15 METAR KLOM 201715Z AUTO 31006KT 10SM CLR 21/03 A3020 RMK AO1 =
2017-10-20 12:55 METAR KLOM 201655Z AUTO 28008KT 10SM CLR 21/05 A3020 RMK AO1 =
2017-10-20 12:35 METAR KLOM 201635Z AUTO 31007KT 290V360 10SM CLR 20/03 A3021 RMK AO1 =
2017-10-20 12:15 METAR KLOM 201615Z AUTO 32006KT 10SM CLR 20/03 A3022 RMK AO1 =
2017-10-20 11:55 METAR KLOM 201555Z AUTO 31008KT 260V320 10SM CLR 20/03 A3022 RMK AO1 =
2017-10-20 11:35 METAR KLOM 201535Z AUTO 34004KT 10SM CLR 20/05 A3023 RMK AO1 =
2017-10-20 11:15 METAR KLOM 201515Z AUTO 34007KT 320V020 10SM CLR 19/06 A3023 RMK AO1 =
2017-10-20 10:55 METAR KLOM 201455Z AUTO 32005KT 10SM CLR 18/06 A3023 RMK AO1 =
2017-10-20 10:35 METAR KLOM 201435Z AUTO 33005KT 10SM CLR 18/07 A3024 RMK AO1 =
2017-10-20 10:15 METAR KLOM 201415Z AUTO 32006KT 10SM CLR 17/08 A3024 RMK AO1 =
2017-10-20 09:55 METAR KLOM 201355Z AUTO 31005KT 10SM CLR 17/08 A3024 RMK AO1 =
2017-10-20 09:35 METAR KLOM 201335Z AUTO 31005KT 10SM CLR 16/10 A3024 RMK AO1 =
2017-10-20 09:15 METAR KLOM 201315Z AUTO 00000KT 10SM CLR 15/10 A3023 RMK AO1 =
2017-10-20 08:55 METAR KLOM 201255Z AUTO 00000KT 10SM CLR 13/10 A3022 RMK AO1 =
2017-10-20 08:35 METAR KLOM 201235Z AUTO 00000KT 10SM CLR 12/10 A3022 RMK AO1 =
2017-10-20 08:15 METAR KLOM 201215Z AUTO 00000KT 10SM CLR 10/10 A3022 RMK AO1 =
2017-10-20 07:55 METAR KLOM 201155Z AUTO 00000KT 10SM CLR 09/09 A3021 RMK AO1 =
2017-10-20 07:35 METAR KLOM 201135Z AUTO 00000KT 10SM CLR 07/07 A3020 RMK AO1 =
2017-10-20 07:15 METAR KLOM 201115Z AUTO 00000KT 10SM CLR 07/07 A3019 RMK AO1 =
2017-10-20 06:55 METAR KLOM 201055Z AUTO 00000KT 10SM CLR 07/07 A3018 RMK AO1 =
2017-10-20 06:35 METAR KLOM 201035Z AUTO 00000KT 10SM CLR 07/07 A3018 RMK AO1 =
2017-10-20 06:15 METAR KLOM 201015Z AUTO 00000KT 10SM CLR 07/07 A3018 RMK AO1 =
2017-10-20 05:55 METAR KLOM 200955Z AUTO 00000KT 10SM CLR 07/07 A3017 RMK AO1 =
2017-10-20 05:35 METAR KLOM 200935Z AUTO 00000KT 10SM CLR 07/07 A3016 RMK AO1 =
2017-10-20 05:15 METAR KLOM 200915Z AUTO 00000KT 10SM CLR 08/08 A3016 RMK AO1 =
2017-10-20 04:55 METAR KLOM 200855Z AUTO 00000KT 10SM CLR 08/08 A3015 RMK AO1 =
2017-10-20 04:35 METAR KLOM 200835Z AUTO 00000KT 10SM CLR 08/08 A3014 RMK AO1 =
2017-10-20 04:15 METAR KLOM 200815Z AUTO 00000KT 10SM CLR 08/08 A3014 RMK AO1 =
2017-10-20 03:55 METAR KLOM 200755Z AUTO 00000KT 10SM CLR 07/07 A3014 RMK AO1 =
2017-10-20 03:35 METAR KLOM 200735Z AUTO 00000KT 10SM CLR 08/08 A3013 RMK AO1 =
2017-10-20 03:15 METAR KLOM 200715Z AUTO 00000KT 10SM CLR 08/08 A3013 RMK AO1 =
2017-10-20 02:55 METAR KLOM 200655Z AUTO 00000KT 10SM CLR 08/08 A3013 RMK AO1 =
2017-10-20 02:35 METAR KLOM 200635Z AUTO 00000KT 10SM CLR 08/08 A3014 RMK AO1 =
2017-10-20 02:15 METAR KLOM 200615Z AUTO 00000KT 10SM CLR 08/08 A3014 RMK AO1 =
2017-10-20 01:55 METAR KLOM 200555Z AUTO 00000KT 10SM CLR 08/08 A3014 RMK AO1 =
2017-10-20 01:35 METAR KLOM 200535Z AUTO 00000KT 10SM CLR 08/08 A3014 RMK AO1 =
2017-10-20 01:15 METAR KLOM 200515Z AUTO 00000KT 10SM CLR 08/08 A3014 RMK AO1 =
2017-10-20 00:55 METAR KLOM 200455Z AUTO 00000KT 10SM CLR 07/07 A3014 RMK AO1 =
2017-10-20 00:35 METAR KLOM 200435Z AUTO 00000KT 10SM CLR 09/09 A3014 RMK AO1 =
2017-10-20 00:15 METAR KLOM 200415Z AUTO 00000KT 10SM CLR 08/08 A3014 RMK AO1 =
2017-10-19 23:55 METAR KLOM 200355Z AUTO 00000KT 10SM CLR 08/08 A3014 RMK AO1 =
2017-10-19 23:35 METAR KLOM 200335Z AUTO 00000KT 10SM CLR 09/08 A3015 RMK AO1 =
2017-10-19 23:15 METAR KLOM 200315Z AUTO 00000KT 10SM CLR 11/09 A3014 RMK AO1 =
2017-10-19 22:55 METAR KLOM 200255Z AUTO 00000KT 10SM CLR 11/08 A3014 RMK AO1 =
2017-10-19 22:35 METAR KLOM 200235Z AUTO 00000KT 10SM CLR 11/08 A3014 RMK AO1 =
2017-10-19 22:15 METAR KLOM 200215Z AUTO 00000KT 10SM CLR 11/08 A3014 RMK AO1 =
2017-10-19 21:55 METAR KLOM 200155Z AUTO 00000KT 10SM CLR 10/08 A3014 RMK AO1 =
2017-10-19 21:35 METAR KLOM 200135Z AUTO 00000KT 10SM CLR 10/08 A3014 RMK AO1 =

Support USWX by starting your Amazon purchase here.